KCPS/CPS METAR and TAF weather

Enter ICAO airport designator
Station Type Date Time Source
KCPS METAR 2020/04/09 19:53 UTC NOAA

KCPS 091953Z 30023G34KT 10SM CLR 16/M10 A2989 RMK AO2 PK WND 31034/1945 SLP120 T01611100


Station Type Date Time Source
KCPS Decoded METAR 2020/04/09 19:53 UTC NOAA

ST LOUIS DOWNTOWN AIRPORT, IL, United States (KCPS) 38-34N 090-09W 126M
Apr 09, 2020 - 03:53 PM EDT / 2020.04.09 1953 UTC
Wind: from the WNW (300 degrees) at 26 MPH (23 KT) gusting to 39 MPH (34 KT):0
Visibility: 10 mile(s):0
Sky conditions: clear
Temperature: 61.0 F (16.1 C)
Dew Point: 14.0 F (-10.0 C)
Relative Humidity: 15%
Pressure (altimeter): 29.89 in. Hg (1012 hPa)
ob: KCPS 091953Z 30023G34KT 10SM CLR 16/M10 A2989 RMK AO2 PK WND 31034/1945 SLP120 T01611100
cycle: 20

Station Type Date Time Source
KCPS TAF 2020/04/09 18:22 UTC NOAA

TAF KCPS 091720Z 0918/1018 29015G28KT P6SM FEW070
FM092000 29018G34KT P6SM SCT070
FM100000 32016G23KT P6SM BKN070
FM100300 33009KT P6SM SKC

Example: see airport list